Sierra Nevada Aquatic Research Lab (SNARL) Reserve, California Weather observations

Data are for 10 minute period ending at time listed.
 Day   Time   Solar   Ave.   Ave.  Ave.  Vector  Max.   Baro.   Total    
  of    of     Rad.   Air    Rel.  Wind   Wind   Wind  Press.  Precip.   
Year   Day            Temp.  Hum.  Speed  Dir.   Gust                    
2015   (PST)  Kw/m2    F      %     mph   deg.    mph    mb.     in.     
-------------------------------------------------------------------------
 244   18:10   0.03   69.5    22   10.6   220    19.3   784.2    0.00 
 244   18:20   0.01   69.0    22   13.0   214    20.3   784.4    0.00 
 244   18:30   0.00   68.4    23    9.3   233    15.3   784.6    0.00 
 244   18:40   0.00   67.9    23    9.0   247    16.4   784.6    0.00 
 244   18:50   0.00   65.8    25    5.5   296    13.5   784.7    0.00 
 244   19:00   0.00   64.6    26    9.3   306    15.5   784.7    0.00 
 244   19:10   0.00   63.9    27    9.1   302    15.6   784.7    0.00 
 244   19:20   0.00   63.8    27    8.0   301    14.0   784.8    0.00 
 244   19:30   0.00   63.2    27    4.9   263    11.8   785.0    0.00 
 244   19:40   0.00   61.8    28    5.4   220    15.6   785.1    0.00 
 244   19:50   0.00   63.8    27    8.5   221    15.1   785.0    0.00 
 244   20:00   0.00   64.6    26    4.6   146    16.0   785.2    0.00 
 244   20:10   0.00   62.8    28    3.3   221     9.3   785.3    0.00 
 244   20:20   0.00   62.2    30    2.1    13     5.6   785.3    0.00 
 244   20:30   0.00   60.4    32    3.2    24     9.5   785.3    0.00 
 244   20:40   0.00   57.7    34    2.6    92     4.9   785.3    0.00 
 244   20:50   0.00   55.4    36    1.4    50     4.3   785.3    0.00 
 244   21:00   0.00   54.7    36    2.2   213     5.5   785.2    0.00 
 244   21:10   0.00   53.0    38    2.1   343     4.7   785.2    0.00 
 244   21:20   0.00   52.7    38    1.9   256     4.5   785.2    0.00 
 244   21:30   0.00   51.8    38    1.8   263     3.8   785.2    0.00 
 244   21:40   0.00   52.8    38    0.8   254     3.1   785.2    0.00 
 244   21:50   0.00   50.8    41    2.5   336     4.9   785.2    0.00 
 244   22:00   0.00   52.6    38    2.2   226     6.3   785.2    0.00 
 244   22:10   0.00   51.3    40    4.0   248     6.9   785.3    0.00 
 244   22:20   0.00   50.7    40    3.1   268     5.6   785.3    0.00 
 244   22:30   0.00   49.2    43    1.6   278     3.1   785.3    0.00 
 244   22:40   0.00   49.0    45    2.6   303     3.9   785.3    0.00 
 244   22:50   0.00   47.5    44    2.4   227     4.7   785.4    0.00 
 244   23:00   0.00   45.9    45    3.1   221     6.3   785.5    0.00 
 244   23:10   0.00   45.7    46    2.8   244     6.4   785.5    0.00 
 244   23:20   0.00   45.6    46    2.5   224     5.9   785.4    0.00 
 244   23:30   0.00   45.1    47    3.5   236     4.6   785.4    0.00 
 244   23:40   0.00   43.8    48    1.8   185     3.9   785.4    0.00 
 244   23:50   0.00   43.9    48    2.8   248     5.7   785.5    0.00 
 245    0:00   0.00   43.0    49    2.3   222     4.0   785.6    0.00 
 245    0:10   0.00   42.6    49    3.7   224     5.7   785.7    0.00 
 245    0:20   0.00   43.1    50    2.7   248     4.5   785.7    0.00 
 245    0:30   0.00   43.0    51    2.3   281     4.5   785.7    0.00 
 245    0:40   0.00   42.7    50    2.7   243     4.6   785.7    0.00 
 245    0:50   0.00   41.6    52    1.9   175     4.0   785.6    0.00 
 245    1:00   0.00   41.3    52    2.8   244     5.8   785.6    0.00 
 245    1:10   0.00   41.6    52    2.0   219     4.1   785.5    0.00 
 245    1:20   0.00   42.5    50    2.3   225     5.2   785.5    0.00 
 245    1:30   0.00   42.5    51    1.3   209     3.9   785.5    0.00 
 245    1:40   0.00   42.4    51    1.3   228     4.0   785.5    0.00 
 245    1:50   0.00   41.9    52    1.1   230     3.9   785.5    0.00 
 245    2:00   0.00   41.7    52    3.0   198     5.1   785.6    0.00 
 245    2:10   0.00   41.7    52    2.7   223     5.0   785.5    0.00 
 245    2:20   0.00   42.1    52    1.5   220     4.3   785.5    0.00 
 245    2:30   0.00   42.1    52    1.3   205     3.9   785.4    0.00 
 245    2:40   0.00   41.3    52    1.4   160     3.2   785.4    0.00 
 245    2:50   0.00   41.1    54    1.5   247     3.8   785.3    0.00 
 245    3:00   0.00   41.7    52    1.6   235     5.0   785.3    0.00 
 245    3:10   0.00   41.5    52    1.6   170     3.7   785.3    0.00 
 245    3:20   0.00   40.9    53    0.9    39     3.4   785.3    0.00 
 245    3:30   0.00   39.6    58    2.0   268     3.1   785.3    0.00 
 245    3:40   0.00   39.2    63    1.3   322     3.1   785.3    0.00 
 245    3:50   0.00   38.1    62    1.1   235     2.8   785.3    0.00 
 245    4:00   0.00   38.9    56    2.2   245     5.9   785.3    0.00 
 245    4:10   0.00   38.9    56    2.0   268     4.8   785.2    0.00 
 245    4:20   0.00   38.1    62    1.7   264     4.5   785.3    0.00 
 245    4:30   0.00   37.7    62    1.3   251     4.2   785.2    0.00 
 245    4:40   0.00   38.6    61    2.1   250     4.6   785.3    0.00 
 245    4:50   0.00   39.2    61    2.8   247     5.1   785.2    0.00 
 245    5:00   0.00   39.3    61    3.1   273     6.6   785.2    0.00 
 245    5:10   0.00   38.7    61    2.3   292     4.8   785.2    0.00 
 245    5:20   0.00   38.0    61    2.5   218     5.0   785.3    0.00 
 245    5:30   0.00   37.6    63    3.7   239     6.4   785.4    0.00 
 245    5:40   0.00   38.2    59    1.9   167     3.9   785.5    0.00 
 245    5:50   0.02   38.9    58    1.1   208     2.4   785.6    0.00 
 245    6:00   0.03   40.9    55    1.9   219     3.3   785.7    0.00 
 245    6:10   0.07   42.2    55    1.4   198     3.1   785.7    0.00 
 245    6:20   0.11   44.9    54    0.9   328     2.9   785.7    0.00 
 245    6:30   0.14   47.0    49    1.9   328     4.0   785.7    0.00 
 245    6:40   0.14   50.1    44    0.7   329     2.2   785.7    0.00 
 245    6:50   0.22   51.8    43    1.0   263     2.2   785.7    0.00 
 245    7:00   0.28   54.6    41    0.9   261     2.2   785.7    0.00 
 245    7:10   0.27   57.7    37    1.1    76     3.0   785.6    0.00 
 245    7:20   0.18   57.7    37    1.3    68     3.5   785.5    0.00 
 245    7:30   0.24   56.4    44    1.4    33     3.1   785.4    0.00 
 245    7:40   0.23   56.7    45    1.7    23     3.1   785.3    0.00 
 245    7:50   0.22   56.4    45    2.3    35     5.5   785.3    0.00 
 245    8:00   0.29   57.3    43    1.5    42     3.9   785.3    0.00 
 245    8:10   0.54   60.3    39    2.3    34     4.8   785.3    0.00 
 245    8:20   0.54   63.6    31    3.3    46     5.4   785.3    0.00 
 245    8:30   0.55   65.0    28    3.7    45     8.2   785.4    0.00 
 245    8:40   0.40   64.9    27    3.8    59     7.1   785.4    0.00 
 245    8:50   0.39   64.1    28    2.8    36     6.2   785.5    0.00 
 245    9:00   0.62   66.8    26    1.6    58     5.8   785.5    0.00 
 245    9:10   0.67   68.3    25    3.9    75     9.3   785.6    0.00 
 245    9:20   0.68   68.5    23    4.6    78     7.7   785.7    0.00 
 245    9:30   0.65   68.4    23    4.4    72     8.4   785.7    0.00 
 245    9:40   0.65   68.8    21    4.0    74     8.3   785.7    0.00 
 245    9:50   0.74   69.3    20    4.9    83     8.8   785.6    0.00 
 245   10:00   0.79   69.6    19    6.2    86    11.2   785.6    0.00 
 245   10:10   0.81   70.9    19    6.3    96    11.8   785.6    0.00 
 245   10:20   0.82   71.7    18    7.4   101    18.1   785.4    0.00 
 245   10:30   0.84   71.7    18    8.2    94    14.2   785.4    0.00 
 245   10:40   0.85   71.9    18    8.2    93    13.7   785.3    0.00 
 245   10:50   0.86   72.1    18    8.5    91    13.9   785.2    0.00 
 245   11:00   0.87   72.8    18    7.8    88    14.1   785.1    0.00 
 245   11:10   0.89   72.9    17    8.5    81    14.5   785.0    0.00 
 245   11:20   0.89   73.3    17    8.1    91    15.2   784.9    0.00 
 245   11:30   0.90   73.7    17    8.6    93    17.0   784.8    0.00 
 245   11:40   0.89   73.7    16   11.5    91    17.2   784.8    0.00 
 245   11:50   0.89   73.8    16    8.5    91    15.6   784.7    0.00 
 245   12:00   0.89   74.0    15   10.3    91    15.9   784.6    0.00 
 245   12:10   0.87   74.1    16    9.4    87    16.5   784.5    0.00 
 245   12:20   0.87   74.9    15    6.8    89    13.8   784.5    0.00 
 245   12:30   0.87   74.8    16   10.5    84    18.0   784.4    0.00 
 245   12:40   0.86   74.7    16    9.1    92    17.1   784.4    0.00 
 245   12:50   0.85   75.3    15   10.6    92    24.3   784.3    0.00 
 245   13:00   0.83   74.6    16   10.6    83    19.5   784.2    0.00 
 245   13:10   0.82   75.1    15    9.1    96    16.7   784.2    0.00 
 245   13:20   0.81   75.5    15    8.4    91    14.7   784.0    0.00 
 245   13:30   0.78   76.1    14    8.7   103    14.9   783.9    0.00 
 245   13:40   0.78   76.4    14   10.2    94    17.5   783.8    0.00 
 245   13:50   0.76   75.8    14   10.2    99    17.3   783.7    0.00 
 245   14:00   0.73   76.4    14    8.1    84    14.5   783.6    0.00 
 245   14:10   0.73   76.7    14    8.2    95    17.8   783.4    0.00 
 245   14:20   0.72   76.3    15    8.9    89    14.0   783.3    0.00 
 245   14:30   0.67   76.8    15    7.1    83    15.9   783.3    0.00 
 245   14:40   0.66   76.1    15    6.9    86    13.0   783.2    0.00 
 245   14:50   0.62   76.9    15    4.3    51     8.2   783.1    0.00 
 245   15:00   0.57   76.7    16    8.2    91    13.2   783.0    0.00 
 245   15:10   0.50   77.0    15    7.6   106    14.5   783.0    0.00 
 245   15:20   0.50   76.1    16    7.1    88    13.2   783.0    0.00 
 245   15:30   0.47   76.4    16    4.9    82    12.0   783.0    0.00 
 245   15:40   0.43   76.3    15    9.3    90    15.6   782.9    0.00 
 245   15:50   0.43   75.9    16    6.0    85    10.4   782.8    0.00 
 245   16:00   0.41   75.7    16    5.1   259    15.9   782.8    0.00 
 245   16:10   0.38   75.2    18   10.9   199    19.1   782.9    0.00 
 245   16:20   0.34   74.8    19   11.4   211    21.6   782.9    0.00 
 245   16:30   0.31   74.2    20   12.4   213    17.8   782.9    0.00 
 245   16:40   0.28   74.4    17   11.6   188    17.2   782.9    0.00 
 245   16:50   0.25   73.8    19   10.7   179    20.0   782.9    0.00 
 245   17:00   0.22   72.9    22   11.0   211    20.7   782.9    0.00 
 245   17:10   0.18   72.1    23   11.6   210    17.4   782.9    0.00 
 245   17:20   0.15   71.4    23   13.1   216    18.6   782.8    0.00 
 245   17:30   0.12   71.1    23   10.1   219    16.3   782.8    0.00 
 245   17:40   0.10   70.5    24   13.1   221    19.1   782.7    0.00 
 245   17:50   0.07   70.1    23   14.1   204    18.6   782.6    0.00 
 245   18:00   0.05   69.8    23    9.2   166    15.4   782.7    0.00 

Return to SNARL Reserve graphs page.


Western Regional Climate Center,wrcc@dri.edu